createdAt,value
2019-04-20T00:01:11.721Z,13.38
2019-04-20T00:03:42.359Z,14.15
2019-04-20T00:06:11.158Z,14.33
2019-04-20T00:08:42.659Z,15.13
2019-04-20T00:11:17.952Z,14.60
2019-04-20T00:13:50.380Z,15.20
2019-04-20T00:16:12.624Z,15.93
2019-04-20T00:18:48.234Z,14.78
2019-04-20T00:21:30.910Z,14.58
2019-04-20T00:24:10.298Z,13.40
2019-04-20T00:27:04.882Z,13.88
2019-04-20T00:29:21.334Z,14.47
2019-04-20T00:31:45.743Z,13.88
2019-04-20T00:34:11.956Z,13.48
2019-04-20T00:36:34.945Z,14.38
2019-04-20T00:39:09.480Z,13.88
2019-04-20T00:41:44.121Z,13.72
2019-04-20T00:44:13.396Z,14.83
2019-04-20T00:46:53.518Z,14.30
2019-04-20T00:49:22.842Z,14.20
2019-04-20T00:52:11.031Z,14.18
2019-04-20T00:54:09.547Z,14.85
2019-04-20T00:56:39.268Z,13.70
2019-04-20T00:59:20.517Z,14.23
2019-04-20T01:02:01.015Z,14.47
2019-04-20T01:04:27.185Z,14.45
2019-04-20T01:07:00.111Z,13.38
2019-04-20T01:09:20.334Z,13.43
2019-04-20T01:11:50.136Z,13.25
2019-04-20T01:14:27.368Z,13.43
2019-04-20T01:16:56.899Z,13.75
2019-04-20T01:19:20.607Z,14.33
2019-04-20T01:21:57.874Z,13.22
2019-04-20T01:24:27.592Z,13.45
2019-04-20T01:26:55.117Z,13.90
2019-04-20T01:29:30.325Z,13.35
2019-04-20T01:32:05.781Z,14.40
2019-04-20T01:34:35.920Z,14.30
2019-04-20T01:37:11.692Z,13.93
2019-04-20T01:39:32.941Z,14.50
2019-04-20T01:41:54.044Z,13.75
2019-04-20T01:44:28.150Z,14.13
2019-04-20T01:46:58.193Z,13.90
2019-04-20T01:49:27.477Z,14.05
2019-04-20T01:52:03.776Z,14.35
2019-04-20T01:54:38.579Z,13.95
2019-04-20T01:57:12.832Z,13.43
2019-04-20T01:59:52.278Z,14.98
2019-04-20T02:02:20.076Z,13.45
2019-04-20T02:04:52.081Z,14.87
2019-04-20T02:07:28.203Z,14.87
2019-04-20T02:09:56.090Z,14.07
2019-04-20T02:12:25.365Z,13.55
2019-04-20T02:14:57.046Z,15.15
2019-04-20T02:17:30.073Z,14.23
2019-04-20T02:20:14.346Z,14.30
2019-04-20T02:22:42.190Z,15.32
2019-04-20T02:24:53.033Z,14.93
2019-04-20T02:27:30.852Z,15.25
2019-04-20T02:30:24.707Z,14.63
2019-04-20T02:33:03.646Z,15.15
2019-04-20T02:35:24.056Z,15.40
2019-04-20T02:38:12.242Z,14.73
2019-04-20T02:40:39.815Z,15.05
2019-04-20T02:43:15.027Z,15.05
2019-04-20T02:48:01.503Z,14.78
2019-04-20T02:53:15.642Z,14.47
2019-04-20T02:55:35.785Z,15.65
2019-04-20T02:58:05.127Z,15.05
2019-04-20T03:00:29.663Z,14.98
2019-04-20T03:02:46.065Z,14.47
2019-04-20T03:05:18.909Z,15.20
2019-04-20T03:07:57.465Z,15.18
2019-04-20T03:10:38.977Z,15.15
2019-04-20T03:12:56.659Z,14.15
2019-04-20T03:15:34.983Z,14.00
2019-04-20T03:17:57.468Z,14.13
2019-04-20T03:20:29.867Z,14.58
2019-04-20T03:23:17.288Z,15.13
2019-04-20T03:25:39.698Z,14.98
2019-04-20T03:28:05.148Z,14.60
2019-04-20T03:31:16.529Z,15.10
2019-04-20T03:35:45.988Z,15.55
2019-04-20T03:38:07.565Z,15.30
2019-04-20T03:40:29.943Z,14.68
2019-04-20T03:42:48.600Z,15.60
2019-04-20T03:45:21.099Z,15.38
2019-04-20T03:48:02.244Z,16.10
2019-04-20T03:50:40.897Z,14.73
2019-04-20T03:53:12.840Z,14.30
2019-04-20T03:55:44.534Z,15.32
2019-04-20T03:58:23.958Z,15.25
2019-04-20T04:00:55.468Z,15.38
2019-04-20T04:03:48.797Z,16.07
2019-04-20T04:06:09.579Z,14.93
2019-04-20T04:08:35.373Z,14.80
2019-04-20T04:11:18.861Z,16.02
2019-04-20T04:13:27.380Z,14.87
2019-04-20T04:16:02.545Z,15.72
2019-04-20T04:18:34.735Z,15.90
2019-04-20T04:21:01.968Z,15.20
2019-04-20T04:23:47.081Z,15.70
2019-04-20T04:26:18.721Z,15.53
2019-04-20T04:28:46.262Z,15.35
2019-04-20T04:31:17.644Z,16.62
2019-04-20T04:36:18.184Z,16.45
2019-04-20T04:38:56.126Z,16.25
2019-04-20T04:41:25.644Z,18.75
2019-04-20T04:43:49.846Z,17.35
2019-04-20T04:46:03.883Z,16.27
2019-04-20T04:48:37.507Z,16.48
2019-04-20T04:51:11.319Z,17.82
2019-04-20T04:53:44.267Z,16.80
2019-04-20T04:56:09.384Z,17.02
2019-04-20T04:58:34.771Z,18.25
2019-04-20T05:01:08.342Z,19.15
2019-04-20T05:03:54.038Z,16.93
2019-04-20T05:06:26.363Z,21.73
2019-04-20T05:08:48.924Z,18.65
2019-04-20T05:11:15.078Z,18.87
2019-04-20T05:13:50.556Z,19.23
2019-04-20T05:16:34.762Z,18.80
2019-04-20T05:19:11.534Z,20.15
2019-04-20T05:21:39.865Z,19.82
2019-04-20T05:24:07.555Z,18.52
2019-04-20T05:26:53.100Z,18.55
2019-04-20T05:29:08.437Z,19.85
2019-04-20T05:31:39.677Z,18.80
2019-04-20T05:34:29.536Z,19.45
2019-04-20T05:36:53.110Z,19.25
2019-04-20T05:39:31.169Z,20.23
2019-04-20T05:41:50.271Z,19.30
2019-04-20T05:44:17.250Z,18.57
2019-04-20T05:46:53.352Z,17.52
2019-04-20T05:49:27.025Z,17.90
2019-04-20T05:51:54.722Z,16.97
2019-04-20T05:54:25.567Z,16.10
2019-04-20T05:56:56.312Z,16.75
2019-04-20T05:59:27.860Z,15.95
2019-04-20T06:02:08.043Z,15.93
2019-04-20T06:04:42.679Z,15.63
2019-04-20T06:07:04.041Z,15.43
2019-04-20T06:09:29.551Z,17.20
2019-04-20T06:14:48.238Z,14.85
2019-04-20T06:17:21.275Z,14.15
2019-04-20T06:19:57.550Z,15.28
2019-04-20T06:22:31.419Z,15.00
2019-04-20T06:25:15.031Z,15.25
2019-04-20T06:27:37.889Z,14.55
2019-04-20T06:30:00.774Z,13.72
2019-04-20T06:32:55.152Z,12.60
2019-04-20T06:35:40.840Z,14.43
2019-04-20T06:38:05.350Z,13.88
2019-04-20T06:40:46.881Z,15.40
2019-04-20T06:43:02.225Z,12.18
2019-04-20T06:45:33.798Z,12.30
2019-04-20T06:47:57.871Z,12.28
2019-04-20T06:50:28.864Z,10.93
2019-04-20T06:53:18.601Z,11.40
2019-04-20T06:55:42.994Z,11.45
2019-04-20T06:58:12.707Z,10.78
2019-04-20T07:00:42.144Z,11.10
2019-04-20T07:03:17.776Z,10.72
2019-04-20T07:05:39.443Z,11.03
2019-04-20T07:08:29.085Z,12.40
2019-04-20T07:10:44.036Z,10.50
2019-04-20T07:13:07.744Z,10.55
2019-04-20T07:15:45.135Z,11.45
2019-04-20T07:18:16.666Z,10.30
2019-04-20T07:20:55.414Z,11.20
2019-04-20T07:23:29.246Z,10.70
2019-04-20T07:25:52.808Z,10.75
2019-04-20T07:28:29.196Z,10.23
2019-04-20T07:30:53.170Z,11.22
2019-04-20T07:33:24.585Z,10.32
2019-04-20T07:35:52.469Z,10.78
2019-04-20T07:38:30.911Z,12.13
2019-04-20T07:40:50.033Z,11.97
2019-04-20T07:43:19.754Z,13.13
2019-04-20T07:45:50.244Z,11.15
2019-04-20T07:48:20.847Z,12.33
2019-04-20T07:50:46.189Z,11.20
2019-04-20T07:53:21.450Z,10.80
2019-04-20T07:55:58.818Z,10.72
2019-04-20T07:58:20.343Z,9.83
2019-04-20T08:01:07.994Z,9.75
2019-04-20T08:03:33.780Z,8.40
2019-04-20T08:05:55.152Z,9.00
2019-04-20T08:08:32.722Z,8.50
2019-04-20T08:11:10.389Z,8.10
2019-04-20T08:16:08.401Z,8.55
2019-04-20T08:18:44.490Z,8.70
2019-04-20T08:21:09.894Z,9.58
2019-04-20T08:23:42.931Z,9.45
2019-04-20T08:26:03.935Z,8.48
2019-04-20T08:28:35.888Z,9.15
2019-04-20T08:31:31.188Z,8.48
2019-04-20T08:34:38.013Z,9.15
2019-04-20T08:36:52.616Z,8.78
2019-04-20T08:39:37.919Z,8.40
2019-04-20T08:41:56.375Z,7.00
2019-04-20T08:44:46.926Z,8.28
2019-04-20T08:47:06.116Z,9.38
2019-04-20T08:49:31.072Z,7.80
2019-04-20T08:54:26.659Z,7.42
2019-04-20T08:56:44.836Z,7.55
2019-04-20T08:59:09.710Z,6.15
2019-04-20T09:01:39.470Z,5.87
2019-04-20T09:04:16.300Z,5.65
2019-04-20T09:06:53.402Z,6.15
2019-04-20T09:09:37.912Z,6.15
2019-04-20T09:12:03.250Z,5.37
2019-04-20T09:14:21.428Z,5.83
2019-04-20T09:16:58.778Z,5.70
2019-04-20T09:19:29.927Z,5.03
2019-04-20T09:22:23.305Z,5.50
2019-04-20T09:24:57.659Z,6.05
2019-04-20T09:27:22.825Z,6.40
2019-04-20T09:30:00.601Z,4.87
2019-04-20T09:32:28.653Z,5.60
2019-04-20T09:35:06.682Z,5.72
2019-04-20T09:37:41.392Z,7.70
2019-04-20T09:40:21.196Z,6.53
2019-04-20T09:42:36.493Z,6.78
2019-04-20T09:45:08.285Z,6.80
2019-04-20T09:47:43.560Z,6.45
2019-04-20T09:50:22.363Z,6.28
2019-04-20T09:52:59.121Z,5.70
2019-04-20T09:55:22.117Z,5.33
2019-04-20T09:57:57.627Z,6.12
2019-04-20T10:00:33.317Z,6.40
2019-04-20T10:02:44.543Z,5.25
2019-04-20T10:05:13.629Z,5.67
2019-04-20T10:07:43.960Z,5.40
2019-04-20T10:10:21.474Z,5.28
2019-04-20T10:12:44.018Z,5.30
2019-04-20T10:15:19.003Z,5.22
2019-04-20T10:17:45.595Z,5.30
2019-04-20T10:20:22.158Z,6.20
2019-04-20T10:22:45.052Z,5.40
2019-04-20T10:25:14.969Z,5.58
2019-04-20T10:27:45.340Z,5.22
2019-04-20T10:30:16.592Z,6.08
2019-04-20T10:32:50.381Z,5.25
2019-04-20T10:35:18.573Z,5.40
2019-04-20T10:37:49.335Z,5.55
2019-04-20T10:40:34.623Z,5.50
2019-04-20T10:42:50.146Z,6.10
2019-04-20T10:45:19.103Z,5.53
2019-04-20T10:47:48.331Z,7.83
2019-04-20T10:50:18.756Z,5.60
2019-04-20T10:52:47.772Z,5.58
2019-04-20T10:55:18.593Z,5.55
2019-04-20T10:57:47.740Z,5.70
2019-04-20T11:00:19.666Z,5.15
2019-04-20T11:02:50.479Z,5.58
2019-04-20T11:05:20.292Z,5.83
2019-04-20T11:07:50.510Z,5.47
2019-04-20T11:10:25.391Z,5.30
2019-04-20T11:12:50.512Z,4.85
2019-04-20T11:15:20.816Z,5.92
2019-04-20T11:17:49.693Z,5.80
2019-04-20T11:20:21.430Z,5.33
2019-04-20T11:22:50.553Z,5.58
2019-04-20T11:25:20.108Z,5.47
2019-04-20T11:27:50.036Z,5.55
2019-04-20T11:30:20.274Z,5.20
2019-04-20T11:32:49.291Z,5.15
2019-04-20T11:35:25.444Z,5.78
2019-04-20T11:37:49.223Z,5.28
2019-04-20T11:40:19.133Z,4.40
2019-04-20T11:42:48.234Z,5.72
2019-04-20T11:45:18.437Z,5.50
2019-04-20T11:47:47.951Z,6.15
2019-04-20T11:50:19.731Z,5.70
2019-04-20T11:52:49.975Z,4.97
2019-04-20T11:55:20.180Z,4.80
2019-04-20T11:57:49.452Z,5.15
2019-04-20T12:00:25.102Z,5.55
2019-04-20T12:03:00.317Z,5.10
2019-04-20T12:05:37.167Z,5.85
2019-04-20T12:08:02.989Z,5.53
2019-04-20T12:10:33.166Z,5.70
2019-04-20T12:13:03.702Z,4.90
2019-04-20T12:15:35.638Z,7.60
2019-04-20T12:18:05.220Z,4.60
2019-04-20T12:20:34.607Z,5.12
2019-04-20T12:23:04.316Z,4.50
2019-04-20T12:25:35.063Z,4.97
2019-04-20T12:28:05.297Z,6.50
2019-04-20T12:30:35.486Z,5.83
2019-04-20T12:33:05.816Z,5.95
2019-04-20T12:35:36.108Z,5.30
2019-04-20T12:38:05.607Z,6.25
2019-04-20T12:40:35.439Z,5.80
2019-04-20T12:43:04.734Z,5.53
2019-04-20T12:45:34.029Z,5.47
2019-04-20T12:48:03.765Z,5.22
2019-04-20T12:50:32.902Z,4.78
2019-04-20T12:53:02.320Z,5.20
2019-04-20T12:55:32.553Z,5.12
2019-04-20T12:58:02.838Z,4.95
2019-04-20T13:00:43.599Z,4.70
2019-04-20T13:03:13.710Z,5.03
2019-04-20T13:05:43.593Z,4.60
2019-04-20T13:08:20.882Z,4.75
2019-04-20T13:10:46.510Z,4.45
2019-04-20T13:13:23.231Z,5.00
2019-04-20T13:15:54.314Z,4.97
2019-04-20T13:18:29.558Z,5.15
2019-04-20T13:20:59.696Z,5.00
2019-04-20T13:23:30.923Z,4.80
2019-04-20T13:26:02.244Z,5.90
2019-04-20T13:28:30.781Z,5.33
2019-04-20T13:30:59.771Z,4.65
2019-04-20T13:33:29.542Z,5.15
2019-04-20T13:35:58.546Z,4.70
2019-04-20T13:38:27.935Z,5.25
2019-04-20T13:40:57.755Z,4.45
2019-04-20T13:43:27.974Z,4.80
2019-04-20T13:45:57.207Z,5.10
2019-04-20T13:48:26.734Z,4.90
2019-04-20T13:50:56.051Z,4.22
2019-04-20T13:53:25.550Z,4.83
2019-04-20T13:55:54.815Z,4.90
2019-04-20T13:58:33.836Z,4.83
2019-04-20T14:01:10.831Z,5.00
2019-04-20T14:03:40.743Z,6.15
2019-04-20T14:06:10.857Z,4.58
2019-04-20T14:08:41.296Z,4.85
2019-04-20T14:11:11.375Z,5.45
2019-04-20T14:13:45.028Z,5.20
2019-04-20T14:16:11.326Z,5.12
2019-04-20T14:18:40.967Z,5.28
2019-04-20T14:21:10.430Z,4.37
2019-04-20T14:23:39.126Z,5.87
2019-04-20T14:26:09.205Z,4.28
2019-04-20T14:28:38.801Z,4.90
2019-04-20T14:31:09.868Z,4.62
2019-04-20T14:33:39.138Z,4.90
2019-04-20T14:36:08.765Z,4.78
2019-04-20T14:38:38.309Z,4.92
2019-04-20T14:41:08.507Z,5.08
2019-04-20T14:43:38.587Z,5.40
2019-04-20T14:46:08.526Z,4.85
2019-04-20T14:48:38.580Z,5.45
2019-04-20T14:51:07.718Z,4.97
2019-04-20T14:53:37.767Z,4.62
2019-04-20T14:56:07.378Z,4.83
2019-04-20T14:58:43.257Z,4.67
2019-04-20T15:01:23.132Z,5.65
2019-04-20T15:03:59.933Z,5.62
2019-04-20T15:06:23.347Z,4.62
2019-04-20T15:08:52.666Z,4.00
2019-04-20T15:11:22.895Z,5.03
2019-04-20T15:13:53.087Z,4.97
2019-04-20T15:16:22.525Z,4.30
2019-04-20T15:18:59.903Z,5.00
2019-04-20T15:21:33.575Z,3.83
2019-04-20T15:24:03.675Z,3.87
2019-04-20T15:26:34.154Z,4.30
2019-04-20T15:29:04.427Z,3.90
2019-04-20T15:31:34.331Z,3.80
2019-04-20T15:34:04.571Z,4.40
2019-04-20T15:36:34.104Z,3.55
2019-04-20T15:39:05.144Z,3.50
2019-04-20T15:41:35.707Z,3.20
2019-04-20T15:44:05.224Z,3.17
2019-04-20T15:46:35.305Z,2.80
2019-04-20T15:49:06.155Z,3.30
2019-04-20T15:51:35.465Z,3.33
2019-04-20T15:54:05.290Z,3.15
2019-04-20T15:56:35.454Z,3.05
2019-04-20T15:59:04.453Z,3.10
2019-04-20T16:01:36.873Z,2.90
2019-04-20T16:04:11.764Z,3.30
2019-04-20T16:06:41.199Z,3.10
2019-04-20T16:09:10.718Z,2.95
2019-04-20T16:11:39.561Z,2.80
2019-04-20T16:14:09.080Z,3.25
2019-04-20T16:16:38.074Z,3.40
2019-04-20T16:19:13.671Z,3.20
2019-04-20T16:21:37.594Z,3.90
2019-04-20T16:24:08.872Z,3.60
2019-04-20T16:26:39.951Z,3.08
2019-04-20T16:29:08.948Z,3.35
2019-04-20T16:31:38.415Z,3.08
2019-04-20T16:34:07.866Z,2.87
2019-04-20T16:36:38.756Z,3.15
2019-04-20T16:39:09.700Z,2.85
2019-04-20T16:41:40.233Z,3.42
2019-04-20T16:44:09.481Z,3.08
2019-04-20T16:46:38.509Z,2.77
2019-04-20T16:49:08.462Z,3.25
2019-04-20T16:51:38.730Z,2.65
2019-04-20T16:54:08.171Z,2.60
2019-04-20T16:56:37.254Z,2.33
2019-04-20T16:59:10.274Z,2.72
2019-04-20T17:01:37.197Z,2.70
2019-04-20T17:04:10.658Z,2.95
2019-04-20T17:06:38.474Z,2.90
2019-04-20T17:09:10.000Z,2.83
2019-04-20T17:11:39.492Z,2.75
2019-04-20T17:14:08.587Z,2.80
2019-04-20T17:16:37.632Z,2.70
2019-04-20T17:19:07.742Z,2.60
2019-04-20T17:21:37.345Z,3.10
2019-04-20T17:24:07.182Z,3.15
2019-04-20T17:26:45.128Z,3.17
2019-04-20T17:29:19.949Z,3.10
2019-04-20T17:31:53.619Z,3.25
2019-04-20T17:34:40.855Z,2.70
2019-04-20T17:36:54.633Z,2.62
2019-04-20T17:39:33.912Z,2.58
2019-04-20T17:42:07.452Z,2.50
2019-04-20T17:44:37.218Z,2.60
2019-04-20T17:47:14.036Z,2.80
2019-04-20T17:49:36.806Z,2.70
2019-04-20T17:52:22.252Z,2.75
2019-04-20T17:54:37.775Z,4.90
2019-04-20T17:57:09.080Z,7.78
2019-04-20T17:59:40.056Z,2.98
2019-04-20T18:02:44.426Z,2.92
2019-04-20T18:05:34.261Z,2.70
2019-04-20T18:07:49.799Z,3.37
2019-04-20T18:10:22.584Z,3.20
2019-04-20T18:12:42.290Z,3.87
2019-04-20T18:15:28.166Z,3.55
2019-04-20T18:18:15.422Z,4.70
2019-04-20T18:20:30.506Z,4.85
2019-04-20T18:23:00.526Z,3.80
2019-04-20T18:25:56.275Z,5.05
2019-04-20T18:28:14.603Z,4.58
2019-04-20T18:30:52.533Z,5.37
2019-04-20T18:33:18.832Z,5.15
2019-04-20T18:35:47.585Z,5.15
2019-04-20T18:38:17.031Z,4.50
2019-04-20T18:40:55.995Z,4.50
2019-04-20T18:43:22.244Z,4.87
2019-04-20T18:46:09.244Z,5.03
2019-04-20T18:48:37.927Z,4.72
2019-04-20T18:50:49.045Z,4.72
2019-04-20T18:53:28.655Z,4.60
2019-04-20T18:55:55.486Z,4.28
2019-04-20T18:58:20.399Z,4.25
2019-04-20T19:00:51.679Z,4.08
2019-04-20T19:03:27.586Z,5.20
2019-04-20T19:05:51.402Z,5.28
2019-04-20T19:08:30.299Z,5.15
2019-04-20T19:10:57.586Z,4.85
2019-04-20T19:13:28.656Z,4.72
2019-04-20T19:16:19.807Z,5.45
2019-04-20T19:18:56.026Z,4.92
2019-04-20T19:21:13.138Z,5.22
2019-04-20T19:23:53.555Z,5.45
2019-04-20T19:26:18.202Z,5.25
2019-04-20T19:28:49.479Z,5.33
2019-04-20T19:31:30.847Z,6.28
2019-04-20T19:34:07.191Z,5.28
2019-04-20T19:36:26.312Z,6.00
2019-04-20T19:39:00.874Z,6.60
2019-04-20T19:41:31.979Z,5.65
2019-04-20T19:43:59.140Z,5.80
2019-04-20T19:49:01.066Z,5.90
2019-04-20T19:51:42.497Z,6.20
2019-04-20T19:54:16.498Z,6.85
2019-04-20T19:56:38.818Z,6.58
2019-04-20T19:59:02.986Z,7.00
2019-04-20T20:01:22.285Z,7.05
2019-04-20T20:03:57.534Z,6.80
2019-04-20T20:06:30.542Z,9.28
2019-04-20T20:08:59.015Z,14.80
2019-04-20T20:11:29.460Z,11.22
2019-04-20T20:13:55.357Z,9.00
2019-04-20T20:16:33.632Z,8.18
2019-04-20T20:19:07.387Z,7.72
2019-04-20T20:21:38.593Z,7.50
2019-04-20T20:23:56.327Z,7.92
2019-04-20T20:26:33.550Z,7.42
2019-04-20T20:29:09.487Z,7.25
2019-04-20T20:31:38.410Z,7.03
2019-04-20T20:34:07.589Z,6.87
2019-04-20T20:36:38.353Z,8.30
2019-04-20T20:39:05.905Z,7.37
2019-04-20T20:41:42.940Z,7.90
2019-04-20T20:44:06.947Z,8.23
2019-04-20T20:46:37.830Z,7.12
2019-04-20T20:49:16.606Z,7.25
2019-04-20T20:51:48.527Z,7.55
2019-04-20T20:54:09.876Z,8.20
2019-04-20T20:56:35.804Z,8.03
2019-04-20T20:59:12.546Z,7.75
2019-04-20T21:01:41.409Z,7.80
2019-04-20T21:04:04.800Z,8.58
2019-04-20T21:06:34.772Z,11.03
2019-04-20T21:09:05.094Z,8.63
2019-04-20T21:11:36.110Z,9.65
2019-04-20T21:14:04.838Z,8.90
2019-04-20T21:16:40.168Z,8.60
2019-04-20T21:19:21.449Z,8.43
2019-04-20T21:21:47.519Z,8.43
2019-04-20T21:24:17.677Z,7.90
2019-04-20T21:26:44.302Z,7.78
2019-04-20T21:29:15.537Z,7.12
2019-04-20T21:31:56.978Z,8.00
2019-04-20T21:34:19.847Z,7.60
2019-04-20T21:36:47.289Z,7.62
2019-04-20T21:39:27.543Z,7.28
2019-04-20T21:41:52.941Z,7.67
2019-04-20T21:44:24.404Z,7.90
2019-04-20T21:46:53.755Z,7.58
2019-04-20T21:49:32.990Z,8.48
2019-04-20T21:51:57.288Z,8.13
2019-04-20T21:54:20.178Z,7.90
2019-04-20T21:56:56.323Z,7.92
2019-04-20T21:59:26.955Z,7.53
2019-04-20T22:01:58.504Z,7.67
2019-04-20T22:04:22.904Z,8.65
2019-04-20T22:06:52.107Z,8.48
2019-04-20T22:09:27.117Z,8.08
2019-04-20T22:11:51.925Z,8.65
2019-04-20T22:14:24.030Z,8.58
2019-04-20T22:16:54.799Z,8.30
2019-04-20T22:19:35.903Z,8.05
2019-04-20T22:22:04.292Z,7.70
2019-04-20T22:24:40.962Z,8.80
2019-04-20T22:27:05.395Z,8.13
2019-04-20T22:29:24.147Z,8.90
2019-04-20T22:32:02.684Z,8.93
2019-04-20T22:34:26.057Z,8.70
2019-04-20T22:36:54.190Z,9.30
2019-04-20T22:39:39.303Z,8.88
2019-04-20T22:42:07.375Z,9.00
2019-04-20T22:44:34.048Z,8.90
2019-04-20T22:47:05.497Z,8.80
2019-04-20T22:49:48.205Z,9.75
2019-04-20T22:52:18.510Z,9.15
2019-04-20T22:54:48.882Z,9.58
2019-04-20T22:57:17.707Z,8.68
2019-04-20T22:59:42.164Z,9.70
2019-04-20T23:02:08.101Z,8.85
2019-04-20T23:04:37.117Z,8.85
2019-04-20T23:07:06.058Z,9.28
2019-04-20T23:09:39.463Z,9.43
2019-04-20T23:12:10.124Z,9.43
2019-04-20T23:14:38.323Z,9.38
2019-04-20T23:17:08.336Z,9.38
2019-04-20T23:19:46.647Z,10.08
2019-04-20T23:22:10.294Z,9.15
2019-04-20T23:24:39.334Z,11.00
2019-04-20T23:27:15.369Z,11.30
2019-04-20T23:29:41.613Z,10.08
2019-04-20T23:32:12.551Z,10.05
2019-04-20T23:34:41.045Z,10.78
2019-04-20T23:37:16.159Z,10.13
2019-04-20T23:39:42.990Z,9.98
2019-04-20T23:42:13.029Z,10.70
2019-04-20T23:44:54.292Z,10.00
2019-04-20T23:47:38.649Z,9.68
2019-04-20T23:50:20.933Z,9.73
2019-04-20T23:53:01.327Z,9.40
2019-04-20T23:55:11.941Z,9.05
2019-04-20T23:57:39.733Z,9.85
